Time;durP1;ratioP1;P1;durP2;ratioP2;P2;SDS_P1;SDS_P2;PMS_P1;PMS_P2;Temp;Humidity;BMP_temperature;BMP_pressure;BME280_temperature;BME280_humidity;BME280_pressure;Samples;Min_cycle;Max_cycle;Signal;HPM_P1;HPM_P2
2021/12/12 00:00:33;;;;;;;16.30;7.43;;;5.10;99.90;;;;;;2611198;54;20397;-72
2021/12/12 00:03:10;;;;;;;17.13;8.03;;;5.10;99.90;;;;;;2609810;39;20828;-71
2021/12/12 00:05:45;;;;;;;8.60;6.10;;;5.10;99.90;;;;;;2610360;54;20395;-74
2021/12/12 00:08:13;;;;;;;14.63;7.03;;;5.10;99.90;;;;;;2611351;54;20398;-74
2021/12/12 00:10:43;;;;;;;12.20;7.67;;;5.10;99.90;;;;;;2610905;54;20421;-71
2021/12/12 00:13:14;;;;;;;12.60;7.53;;;5.00;99.90;;;;;;2611831;54;20991;-74
2021/12/12 00:15:41;;;;;;;9.60;7.27;;;5.00;99.90;;;;;;2612955;31;20937;-71
2021/12/12 00:18:07;;;;;;;8.83;5.63;;;5.10;99.90;;;;;;2612907;54;20432;-72
2021/12/12 00:20:34;;;;;;;9.87;7.27;;;5.10;99.90;;;;;;2611234;47;21011;-72
2021/12/12 00:23:00;;;;;;;11.47;7.03;;;5.10;99.90;;;;;;2611270;54;20407;-71
2021/12/12 00:25:32;;;;;;;13.77;7.10;;;5.10;99.90;;;;;;2613252;54;20432;-71
2021/12/12 00:27:59;;;;;;;11.13;6.27;;;5.40;99.90;;;;;;2613329;54;20442;-73
2021/12/12 00:30:26;;;;;;;11.70;7.37;;;5.30;99.90;;;;;;2614453;54;20412;-71
2021/12/12 00:32:52;;;;;;;8.00;7.17;;;5.20;99.90;;;;;;2612973;47;20415;-72
2021/12/12 00:35:19;;;;;;;11.43;6.50;;;5.30;99.90;;;;;;2612666;54;21095;-71
2021/12/12 00:37:48;;;;;;;9.43;6.20;;;5.20;99.90;;;;;;2612915;54;20404;-71
2021/12/12 00:40:22;;;;;;;10.83;6.93;;;5.10;99.90;;;;;;2613264;39;20808;-72
2021/12/12 00:42:52;;;;;;;13.70;7.17;;;5.10;99.90;;;;;;2610075;54;20394;-72
2021/12/12 00:45:18;;;;;;;5.87;4.37;;;5.30;99.90;;;;;;2612161;49;20952;-71
2021/12/12 00:47:46;;;;;;;10.53;6.27;;;5.20;99.90;;;;;;2610548;54;20387;-72
2021/12/12 00:50:34;;;;;;;10.67;5.30;;;5.10;99.90;;;;;;2612989;47;20474;-75
2021/12/12 00:53:04;;;;;;;8.20;6.50;;;5.10;99.90;;;;;;2611069;54;20407;-71
2021/12/12 00:55:30;;;;;;;12.13;6.53;;;5.20;99.90;;;;;;2611580;54;20415;-72
2021/12/12 00:57:56;;;;;;;7.83;5.13;;;5.20;99.90;;;;;;2610882;54;20983;-71
2021/12/12 01:00:36;;;;;;;8.97;4.97;;;5.20;99.90;;;;;;2611066;54;20399;-71
2021/12/12 01:03:04;;;;;;;10.63;6.10;;;5.10;99.90;;;;;;2611994;54;20455;-75
2021/12/12 01:05:30;;;;;;;8.93;6.07;;;5.10;99.90;;;;;;2610703;47;20423;-72
2021/12/12 01:07:57;;;;;;;10.00;6.40;;;5.20;99.90;;;;;;2611267;54;20440;-73
2021/12/12 01:10:25;;;;;;;16.83;6.80;;;5.20;99.90;;;;;;2613149;54;20410;-71
2021/12/12 01:12:56;;;;;;;5.00;4.57;;;5.20;99.90;;;;;;2611118;54;20375;-72
2021/12/12 01:15:39;;;;;;;15.33;6.10;;;5.10;99.90;;;;;;2611373;54;20398;-73
2021/12/12 01:18:14;;;;;;;7.93;6.10;;;5.00;99.90;;;;;;2611155;54;20435;-71
2021/12/12 01:20:44;;;;;;;7.23;5.97;;;5.20;99.90;;;;;;2611463;54;20419;-70
2021/12/12 01:23:21;;;;;;;9.83;4.80;;;5.30;99.90;;;;;;2611412;54;20484;-72
2021/12/12 01:25:48;;;;;;;7.67;5.37;;;5.20;99.90;;;;;;2612237;54;20422;-72
2021/12/12 01:28:19;;;;;;;8.47;6.30;;;5.10;99.90;;;;;;2612008;54;20419;-73
2021/12/12 01:30:45;;;;;;;9.20;6.30;;;5.20;99.90;;;;;;2610755;54;20419;-71
2021/12/12 01:33:21;;;;;;;9.43;5.33;;;5.20;99.90;;;;;;2613705;54;20416;-74
2021/12/12 01:35:47;;;;;;;11.93;6.00;;;5.10;99.90;;;;;;2613549;39;20905;-72
2021/12/12 01:40:59;;;;;;;7.53;4.27;;;5.50;99.90;;;;;;2613094;54;20423;-71
2021/12/12 01:43:37;;;;;;;11.47;4.90;;;5.30;99.90;;;;;;2613763;39;21036;-70
2021/12/12 01:46:07;;;;;;;5.97;4.97;;;5.20;99.90;;;;;;2614155;47;20506;-72
2021/12/12 01:48:47;;;;;;;12.00;5.97;;;5.20;99.90;;;;;;2611674;54;20427;-72
2021/12/12 01:51:14;;;;;;;5.93;5.33;;;5.40;99.90;;;;;;2612349;54;20454;-72
2021/12/12 01:53:45;;;;;;;8.67;5.07;;;5.40;99.90;;;;;;2613462;54;20394;-74
2021/12/12 01:56:42;;;;;;;9.90;5.23;;;5.40;99.90;;;;;;2614104;54;20395;-71
2021/12/12 01:59:11;;;;;;;8.27;5.33;;;5.50;99.90;;;;;;2613353;54;20427;-71
2021/12/12 02:01:52;;;;;;;5.73;5.23;;;5.30;99.90;;;;;;2614011;54;21158;-75
2021/12/12 02:04:27;;;;;;;5.37;4.20;;;5.30;99.90;;;;;;2614631;54;20400;-72
2021/12/12 02:06:55;;;;;;;6.47;4.40;;;5.30;99.90;;;;;;2614097;39;20778;-71
2021/12/12 02:09:23;;;;;;;5.60;4.43;;;5.40;99.90;;;;;;2612658;54;20423;-71
2021/12/12 02:11:53;;;;;;;10.50;5.43;;;5.40;99.90;;;;;;2613825;54;20505;-71
2021/12/12 02:14:21;;;;;;;9.20;5.80;;;5.60;99.90;;;;;;2613843;39;20831;-71
2021/12/12 02:16:55;;;;;;;8.10;3.97;;;5.50;99.90;;;;;;2612942;54;20467;-72
2021/12/12 02:19:29;;;;;;;7.83;4.50;;;5.40;99.90;;;;;;2614459;39;20826;-71
2021/12/12 02:35:27;;;;;;;8.60;4.50;;;5.50;99.90;;;;;;2614166;54;20510;-72
2021/12/12 02:37:56;;;;;;;6.33;5.20;;;5.50;99.90;;;;;;2613121;54;20419;-71
2021/12/12 02:40:29;;;;;;;13.47;5.60;;;5.40;99.90;;;;;;2614086;39;20800;-70
2021/12/12 02:42:56;;;;;;;6.60;4.10;;;5.60;99.90;;;;;;2613661;54;20502;-71
2021/12/12 02:45:24;;;;;;;6.07;4.83;;;5.70;99.90;;;;;;2613618;54;20392;-70
2021/12/12 02:47:59;;;;;;;6.10;4.63;;;5.70;99.90;;;;;;2611380;51;20428;-70
2021/12/12 02:50:36;;;;;;;6.83;4.40;;;5.70;99.90;;;;;;2613586;47;20447;-70
2021/12/12 02:53:20;;;;;;;6.03;4.37;;;5.90;99.90;;;;;;2611782;54;20422;-72
2021/12/12 02:55:58;;;;;;;8.37;5.00;;;5.70;99.90;;;;;;2615107;54;20460;-72
2021/12/12 02:58:25;;;;;;;4.83;4.30;;;5.60;99.90;;;;;;2614319;54;20482;-71
2021/12/12 03:00:59;;;;;;;9.30;5.50;;;5.60;99.90;;;;;;2614528;54;21016;-71
2021/12/12 03:03:32;;;;;;;4.73;3.47;;;5.60;99.90;;;;;;2614443;54;20450;-73
2021/12/12 03:05:59;;;;;;;5.20;3.70;;;5.70;99.90;;;;;;2614882;39;20954;-71
2021/12/12 03:08:25;;;;;;;6.67;4.87;;;5.60;99.90;;;;;;2611649;54;20427;-71
2021/12/12 03:10:53;;;;;;;9.97;5.40;;;5.70;99.90;;;;;;2611126;54;20410;-71
2021/12/12 03:13:21;;;;;;;4.93;4.47;;;5.70;99.90;;;;;;2612735;54;20427;-71
2021/12/12 03:15:48;;;;;;;13.63;5.27;;;5.70;99.90;;;;;;2613844;54;20469;-71
2021/12/12 03:18:20;;;;;;;11.43;5.00;;;5.70;99.90;;;;;;2613899;54;20467;-71
2021/12/12 03:20:51;;;;;;;6.70;3.53;;;5.70;99.90;;;;;;2613088;54;20993;-71
2021/12/12 03:23:24;;;;;;;10.70;4.77;;;5.70;99.90;;;;;;2612480;46;20458;-72
2021/12/12 03:25:59;;;;;;;8.13;4.43;;;5.70;99.90;;;;;;2613983;54;20412;-71
2021/12/12 03:28:29;;;;;;;9.43;4.20;;;5.70;99.90;;;;;;2612157;54;20469;-70
2021/12/12 03:30:59;;;;;;;5.70;3.77;;;5.70;99.90;;;;;;2614378;39;20947;-72
2021/12/12 03:33:30;;;;;;;5.20;3.97;;;5.70;99.90;;;;;;2613184;54;20956;-72
2021/12/12 03:35:58;;;;;;;5.43;4.30;;;5.90;99.90;;;;;;2613164;47;21059;-72
2021/12/12 03:38:28;;;;;;;5.53;4.80;;;5.70;99.90;;;;;;2613991;54;20411;-72
2021/12/12 03:40:59;;;;;;;9.03;4.90;;;5.70;99.90;;;;;;2613498;54;20518;-75
2021/12/12 03:43:25;;;;;;;6.93;4.90;;;5.70;99.90;;;;;;2611279;54;20955;-72
2021/12/12 03:45:51;;;;;;;7.80;4.70;;;5.70;99.90;;;;;;2611417;54;20434;-71
2021/12/12 03:48:32;;;;;;;6.77;4.40;;;5.70;99.90;;;;;;2612362;54;20476;-71
2021/12/12 03:51:04;;;;;;;7.67;4.80;;;5.70;99.90;;;;;;2614078;54;20427;-71
2021/12/12 03:53:31;;;;;;;5.90;4.37;;;5.80;99.90;;;;;;2613272;54;20475;-73
2021/12/12 03:55:58;;;;;;;9.70;4.90;;;5.90;99.90;;;;;;2612526;54;20413;-72
2021/12/12 03:58:25;;;;;;;9.10;5.17;;;5.80;99.90;;;;;;2612736;47;20431;-71
2021/12/12 04:01:05;;;;;;;5.33;3.63;;;5.90;99.90;;;;;;2613496;54;20534;-72
2021/12/12 04:03:32;;;;;;;11.90;5.20;;;5.90;99.90;;;;;;2613430;46;20493;-70
2021/12/12 04:06:01;;;;;;;10.40;4.10;;;5.90;99.90;;;;;;2611690;54;20395;-71
2021/12/12 04:08:29;;;;;;;4.30;3.90;;;5.80;99.90;;;;;;2614137;39;20792;-71
2021/12/12 04:10:55;;;;;;;13.03;4.20;;;5.90;99.90;;;;;;2612211;54;20407;-71
2021/12/12 04:13:22;;;;;;;8.37;3.77;;;5.80;99.90;;;;;;2612343;54;21069;-71
2021/12/12 04:15:55;;;;;;;10.63;4.67;;;5.90;99.90;;;;;;2613046;39;20893;-71
2021/12/12 04:18:25;;;;;;;6.43;3.83;;;5.90;99.90;;;;;;2612612;54;21032;-71
2021/12/12 04:20:51;;;;;;;6.30;4.13;;;5.80;99.90;;;;;;2613748;39;20862;-72
2021/12/12 04:23:20;;;;;;;6.70;3.90;;;5.70;99.90;;;;;;2612731;54;20390;-73
2021/12/12 04:25:46;;;;;;;8.90;4.70;;;5.80;99.90;;;;;;2614412;54;20420;-72
2021/12/12 04:28:13;;;;;;;9.20;4.63;;;5.70;99.90;;;;;;2614506;39;20914;-71
2021/12/12 04:30:39;;;;;;;11.50;4.80;;;5.70;99.90;;;;;;2612190;54;20408;-70
2021/12/12 04:33:07;;;;;;;8.03;4.33;;;5.70;99.90;;;;;;2613225;54;20960;-72
2021/12/12 04:35:34;;;;;;;7.90;5.10;;;5.80;99.90;;;;;;2613844;54;20421;-73
2021/12/12 04:38:01;;;;;;;5.83;4.30;;;5.60;99.90;;;;;;2612430;54;20416;-71
2021/12/12 04:40:30;;;;;;;7.30;4.30;;;5.70;99.90;;;;;;2613824;54;20397;-72
2021/12/12 04:42:56;;;;;;;12.37;5.43;;;5.60;99.90;;;;;;2614122;54;20459;-70
2021/12/12 04:46:08;;;;;;;8.00;4.90;;;5.70;99.90;;;;;;2616224;39;20816;-70
2021/12/12 04:51:33;;;;;;;5.07;4.23;;;5.70;99.90;;;;;;2612452;46;20383;-72
2021/12/12 04:54:20;;;;;;;13.07;3.83;;;5.80;99.90;;;;;;2614354;39;21101;-71
2021/12/12 04:57:12;;;;;;;6.63;4.20;;;5.70;99.90;;;;;;2612682;54;20504;-71
2021/12/12 04:59:46;;;;;;;8.03;3.97;;;5.80;99.90;;;;;;2613348;54;20945;-71
2021/12/12 05:02:41;;;;;;;10.00;4.70;;;5.80;99.90;;;;;;2613058;54;21002;-71
2021/12/12 05:05:33;;;;;;;11.90;5.47;;;5.80;99.90;;;;;;2614022;54;20524;-71
2021/12/12 05:08:04;;;;;;;9.30;4.67;;;5.70;99.90;;;;;;2612043;54;20562;-73
2021/12/12 05:10:36;;;;;;;8.57;4.10;;;5.80;99.90;;;;;;2611768;54;20443;-70
2021/12/12 05:13:31;;;;;;;9.40;4.97;;;5.80;99.90;;;;;;2611277;54;21075;-72
2021/12/12 05:16:01;;;;;;;6.30;3.57;;;5.80;99.90;;;;;;2612152;47;20423;-72
2021/12/12 05:18:31;;;;;;;4.97;4.43;;;5.70;99.90;;;;;;2611861;51;20436;-72
2021/12/12 05:21:08;;;;;;;7.40;4.87;;;5.60;99.90;;;;;;2613918;54;20400;-71
2021/12/12 05:23:35;;;;;;;11.70;5.20;;;5.70;99.90;;;;;;2613684;54;20418;-71
2021/12/12 05:26:16;;;;;;;8.80;3.90;;;5.60;99.90;;;;;;2612831;54;20440;-71
2021/12/12 05:28:50;;;;;;;9.63;4.83;;;5.60;99.90;;;;;;2613559;54;20444;-71
2021/12/12 05:31:20;;;;;;;10.30;4.63;;;5.60;99.90;;;;;;2614618;54;20420;-72
2021/12/12 05:33:50;;;;;;;9.13;5.40;;;5.50;99.90;;;;;;2611090;47;20445;-72
2021/12/12 05:36:18;;;;;;;9.57;5.83;;;5.60;99.90;;;;;;2613579;54;20395;-73
2021/12/12 05:38:45;;;;;;;6.03;4.20;;;5.50;99.90;;;;;;2613132;39;20796;-72
2021/12/12 05:41:11;;;;;;;10.20;5.80;;;5.40;99.90;;;;;;2613570;47;20431;-72
2021/12/12 05:43:37;;;;;;;9.13;5.27;;;5.30;99.90;;;;;;2613383;54;20446;-72
2021/12/12 05:46:04;;;;;;;17.20;7.20;;;5.40;99.90;;;;;;2613441;54;20404;-71
2021/12/12 05:48:31;;;;;;;8.73;4.27;;;5.30;99.90;;;;;;2613515;39;20467;-73
2021/12/12 05:50:59;;;;;;;6.37;4.40;;;5.50;99.90;;;;;;2613637;46;20460;-72
2021/12/12 05:53:25;;;;;;;13.23;5.20;;;5.30;99.90;;;;;;2610683;47;20402;-71
2021/12/12 05:55:51;;;;;;;13.50;5.93;;;5.30;99.90;;;;;;2614045;54;20423;-73
2021/12/12 05:58:20;;;;;;;7.07;5.70;;;5.30;99.90;;;;;;2613381;54;20422;-71
2021/12/12 06:00:56;;;;;;;8.00;5.47;;;5.30;99.90;;;;;;2613305;47;21261;-72
2021/12/12 06:03:25;;;;;;;10.50;6.60;;;5.30;99.90;;;;;;2611858;54;20426;-72
2021/12/12 06:05:53;;;;;;;11.87;6.20;;;5.30;99.90;;;;;;2613394;39;20914;-72
2021/12/12 06:08:21;;;;;;;11.90;5.60;;;5.30;99.90;;;;;;2613088;54;20420;-72
2021/12/12 06:10:48;;;;;;;6.87;4.93;;;5.40;99.90;;;;;;2613968;54;20443;-72
2021/12/12 06:13:17;;;;;;;6.20;4.43;;;5.40;99.90;;;;;;2612766;39;20776;-71
2021/12/12 06:15:45;;;;;;;13.63;5.20;;;5.50;99.90;;;;;;2613886;54;20419;-72
2021/12/12 06:18:12;;;;;;;6.23;4.93;;;5.30;99.90;;;;;;2611714;47;20459;-76
2021/12/12 06:20:40;;;;;;;6.60;5.70;;;5.30;99.90;;;;;;2614417;54;20443;-71
2021/12/12 06:23:08;;;;;;;13.23;5.20;;;5.40;99.90;;;;;;2613781;47;20427;-72
2021/12/12 06:25:35;;;;;;;8.70;5.17;;;5.30;99.90;;;;;;2615388;39;20772;-71
2021/12/12 06:28:08;;;;;;;11.73;5.03;;;5.50;99.90;;;;;;2614051;54;20412;-71
2021/12/12 06:30:34;;;;;;;9.33;5.43;;;5.40;99.90;;;;;;2614641;54;21024;-72
2021/12/12 06:32:59;;;;;;;8.33;5.90;;;5.40;99.90;;;;;;2614990;54;20480;-71
2021/12/12 06:35:25;;;;;;;5.80;4.80;;;5.50;99.90;;;;;;2612594;47;20448;-73
2021/12/12 06:37:52;;;;;;;8.03;4.73;;;5.40;99.90;;;;;;2611813;54;20406;-72
2021/12/12 06:40:21;;;;;;;10.83;6.07;;;5.40;99.90;;;;;;2612678;54;20423;-72
2021/12/12 06:42:49;;;;;;;9.23;3.57;;;5.50;99.90;;;;;;2614132;54;20416;-71
2021/12/12 06:45:16;;;;;;;8.97;4.67;;;5.50;99.90;;;;;;2612875;54;20420;-72
2021/12/12 06:47:42;;;;;;;7.90;5.10;;;5.60;99.90;;;;;;2610529;54;20407;-74
2021/12/12 06:50:09;;;;;;;8.77;4.63;;;5.50;99.90;;;;;;2610701;51;20426;-72
2021/12/12 06:52:36;;;;;;;5.93;4.23;;;5.60;99.90;;;;;;2611660;47;20940;-71
2021/12/12 06:55:06;;;;;;;8.80;5.13;;;5.60;99.90;;;;;;2611942;47;20434;-72
2021/12/12 06:57:32;;;;;;;11.10;4.60;;;5.60;99.90;;;;;;2612988;54;20408;-72
2021/12/12 06:59:58;;;;;;;8.47;4.50;;;5.70;99.90;;;;;;2611729;47;20539;-69
2021/12/12 07:02:24;;;;;;;6.40;4.60;;;5.70;99.90;;;;;;2613582;54;20408;-75
2021/12/12 07:04:51;;;;;;;6.47;5.07;;;5.80;99.90;;;;;;2612225;47;20980;-70
2021/12/12 07:07:17;;;;;;;7.23;3.37;;;5.90;99.90;;;;;;2611933;54;20423;-71
2021/12/12 07:09:45;;;;;;;7.07;4.20;;;5.80;99.90;;;;;;2613055;54;20424;-71
2021/12/12 07:12:14;;;;;;;7.13;4.97;;;5.70;99.90;;;;;;2612561;31;20884;-73
2021/12/12 07:14:41;;;;;;;5.30;4.70;;;5.80;99.90;;;;;;2613485;39;20795;-72
2021/12/12 07:17:08;;;;;;;4.50;4.10;;;5.90;99.90;;;;;;2614904;54;20458;-72
2021/12/12 07:19:37;;;;;;;5.97;4.20;;;5.80;99.90;;;;;;2613961;54;20435;-72
2021/12/12 07:22:03;;;;;;;4.50;3.23;;;5.80;99.90;;;;;;2612982;54;20411;-74
2021/12/12 07:24:31;;;;;;;5.90;4.37;;;5.90;99.90;;;;;;2613495;54;20399;-72
2021/12/12 07:26:58;;;;;;;4.23;2.47;;;5.90;99.90;;;;;;2614152;54;20415;-72
2021/12/12 07:29:25;;;;;;;6.70;3.57;;;5.90;99.90;;;;;;2613759;54;20920;-74
2021/12/12 07:31:52;;;;;;;7.77;4.13;;;5.80;99.90;;;;;;2612831;47;20423;-72
2021/12/12 07:34:18;;;;;;;8.10;4.40;;;5.90;99.90;;;;;;2614006;54;20428;-72
2021/12/12 07:36:49;;;;;;;3.63;3.33;;;5.90;99.90;;;;;;2612732;54;20411;-72
2021/12/12 07:39:17;;;;;;;3.97;3.53;;;6.10;99.90;;;;;;2613593;54;20921;-71
2021/12/12 07:41:45;;;;;;;5.70;3.80;;;6.10;99.90;;;;;;2612644;54;20420;-73
2021/12/12 07:44:14;;;;;;;5.53;2.83;;;6.10;99.90;;;;;;2614464;39;20830;-70
2021/12/12 07:46:42;;;;;;;4.43;4.03;;;6.10;99.90;;;;;;2613669;54;20410;-71
2021/12/12 07:49:08;;;;;;;4.60;3.33;;;6.20;99.90;;;;;;2614181;54;20424;-71
2021/12/12 07:51:37;;;;;;;7.00;3.40;;;6.30;99.90;;;;;;2612208;54;20499;-72
2021/12/12 07:54:05;;;;;;;2.97;2.77;;;6.30;99.90;;;;;;2612884;39;20809;-70
2021/12/12 07:56:33;;;;;;;7.93;5.00;;;6.30;99.90;;;;;;2614455;54;20501;-73
2021/12/12 07:59:02;;;;;;;4.23;3.60;;;6.60;99.90;;;;;;2613634;47;20452;-72
2021/12/12 08:01:28;;;;;;;4.47;4.17;;;6.50;99.90;;;;;;2615099;54;20544;-71
2021/12/12 08:03:56;;;;;;;6.07;5.23;;;6.40;99.90;;;;;;2614547;39;20513;-71
2021/12/12 08:06:24;;;;;;;5.70;5.20;;;6.40;99.90;;;;;;2613146;47;21003;-72
2021/12/12 08:08:52;;;;;;;4.90;4.40;;;6.50;99.90;;;;;;2613615;54;20418;-72
2021/12/12 08:11:26;;;;;;;6.03;4.70;;;6.70;99.90;;;;;;2613809;54;20423;-71
2021/12/12 08:13:53;;;;;;;4.70;4.30;;;6.70;99.90;;;;;;2613969;54;20475;-73
2021/12/12 08:16:21;;;;;;;5.47;4.03;;;6.60;99.90;;;;;;2614585;54;20422;-72
2021/12/12 08:18:48;;;;;;;2.77;2.47;;;6.50;99.90;;;;;;2614646;47;20447;-73
2021/12/12 08:21:15;;;;;;;5.07;3.83;;;6.60;99.90;;;;;;2613737;54;20983;-71
2021/12/12 08:23:42;;;;;;;4.93;4.00;;;6.60;99.90;;;;;;2613475;54;20403;-71
2021/12/12 08:26:10;;;;;;;4.33;3.93;;;6.60;99.90;;;;;;2613573;54;21047;-74
2021/12/12 08:28:37;;;;;;;5.33;4.80;;;6.60;99.90;;;;;;2613276;47;20415;-72
2021/12/12 08:31:04;;;;;;;4.07;3.07;;;6.60;99.90;;;;;;2613449;54;20415;-72
2021/12/12 08:33:31;;;;;;;5.70;5.20;;;6.70;99.90;;;;;;2614081;54;20432;-72
2021/12/12 08:35:59;;;;;;;6.53;4.43;;;6.70;99.90;;;;;;2613476;54;20435;-72
2021/12/12 08:38:25;;;;;;;2.73;2.50;;;6.80;99.90;;;;;;2614250;54;20424;-71
2021/12/12 08:40:58;;;;;;;4.60;3.70;;;6.80;99.90;;;;;;2614141;54;20903;-70
2021/12/12 08:43:27;;;;;;;6.07;4.70;;;6.70;99.90;;;;;;2613336;54;20443;-70
2021/12/12 08:46:00;;;;;;;5.60;4.93;;;6.80;99.90;;;;;;2614220;54;20395;-71
2021/12/12 08:48:30;;;;;;;4.53;4.03;;;6.90;99.90;;;;;;2613597;54;20431;-72
2021/12/12 08:51:01;;;;;;;4.40;3.97;;;6.80;99.90;;;;;;2613452;54;20380;-74
2021/12/12 08:53:27;;;;;;;3.80;3.50;;;6.70;99.90;;;;;;2614191;54;20412;-72
2021/12/12 08:55:56;;;;;;;3.67;3.10;;;6.60;99.90;;;;;;2615292;39;21253;-73
2021/12/12 08:58:26;;;;;;;5.73;5.10;;;6.70;99.90;;;;;;2614062;54;20407;-72
2021/12/12 09:01:10;;;;;;;5.00;4.50;;;6.90;99.90;;;;;;2614335;39;20822;-73
2021/12/12 09:03:59;;;;;;;5.00;4.37;;;6.90;99.90;;;;;;2611952;54;20415;-72
2021/12/12 09:06:31;;;;;;;6.00;4.60;;;6.90;99.90;;;;;;2609331;54;20419;-72
2021/12/12 09:09:08;;;;;;;5.67;3.80;;;6.80;99.90;;;;;;2614556;54;20403;-73
2021/12/12 09:11:45;;;;;;;4.73;4.30;;;6.80;99.90;;;;;;2612549;39;20761;-71
2021/12/12 09:14:29;;;;;;;5.17;4.67;;;6.90;99.90;;;;;;2615045;54;20438;-73
2021/12/12 09:17:03;;;;;;;5.63;5.07;;;6.90;99.90;;;;;;2614126;47;20566;-71
2021/12/12 09:19:48;;;;;;;5.90;5.30;;;7.10;99.90;;;;;;2614521;54;20416;-75
2021/12/12 09:22:37;;;;;;;5.70;5.20;;;7.00;99.90;;;;;;2613536;31;20886;-72
2021/12/12 09:25:41;;;;;;;3.90;3.57;;;7.00;99.90;;;;;;2607284;39;20906;-72
2021/12/12 09:28:16;;;;;;;8.33;5.20;;;7.00;99.90;;;;;;2613506;54;20446;-70
2021/12/12 09:30:45;;;;;;;5.63;5.00;;;7.00;99.90;;;;;;2613305;54;20414;-72
2021/12/12 09:33:44;;;;;;;6.23;4.73;;;7.00;99.90;;;;;;2614454;54;20416;-70
2021/12/12 09:36:15;;;;;;;6.13;5.53;;;7.00;99.90;;;;;;2613973;46;20518;-72
2021/12/12 09:38:51;;;;;;;8.77;5.73;;;6.90;99.90;;;;;;2612422;47;20412;-70
2021/12/12 09:41:45;;;;;;;5.70;5.17;;;7.10;99.90;;;;;;2613972;46;20430;-71
2021/12/12 09:44:23;;;;;;;5.73;4.80;;;7.10;99.90;;;;;;2614261;54;20434;-71
2021/12/12 09:53:10;;;;;;;6.10;5.07;;;7.40;99.90;;;;;;2614609;54;20944;-70
2021/12/12 09:55:36;;;;;;;7.87;6.60;;;7.30;99.90;;;;;;2614348;54;20967;-70
2021/12/12 09:58:10;;;;;;;8.30;7.40;;;7.30;99.90;;;;;;2613254;54;20519;-70
2021/12/12 10:00:49;;;;;;;8.47;7.67;;;7.30;99.90;;;;;;2614182;54;20181;-70
2021/12/12 10:03:15;;;;;;;9.37;8.40;;;7.40;99.90;;;;;;2613876;39;20805;-72
2021/12/12 10:05:56;;;;;;;12.07;9.07;;;7.30;99.90;;;;;;2613185;54;20419;-73
2021/12/12 10:08:55;;;;;;;9.57;8.67;;;7.40;99.90;;;;;;2612526;54;20147;-70
2021/12/12 10:11:39;;;;;;;11.80;10.23;;;7.30;99.90;;;;;;2612398;54;20408;-71
2021/12/12 10:14:39;;;;;;;10.60;8.90;;;7.60;99.90;;;;;;2613839;54;20415;-71
2021/12/12 10:17:34;;;;;;;12.10;9.17;;;7.40;99.90;;;;;;2613523;54;20431;-70
2021/12/12 10:20:09;;;;;;;11.83;10.00;;;7.40;99.90;;;;;;2612788;54;20507;-72
2021/12/12 10:22:59;;;;;;;11.57;10.37;;;7.60;99.90;;;;;;2611742;54;20398;-72
2021/12/12 10:25:32;;;;;;;9.87;7.50;;;7.90;99.90;;;;;;2611659;47;20415;-71
2021/12/12 10:28:15;;;;;;;11.30;9.70;;;7.70;99.90;;;;;;2611859;54;20535;-72
2021/12/12 10:30:49;;;;;;;11.80;7.13;;;7.60;99.90;;;;;;2611327;47;20415;-70
2021/12/12 10:33:18;;;;;;;10.97;8.57;;;7.60;99.90;;;;;;2612191;47;20423;-72
2021/12/12 10:36:07;;;;;;;11.73;9.40;;;7.60;99.90;;;;;;2612692;54;20523;-72
2021/12/12 10:38:42;;;;;;;9.20;8.23;;;7.80;99.90;;;;;;2646491;36;20416;-71
2021/12/12 10:41:16;;;;;;;11.17;6.67;;;7.70;99.90;;;;;;2613485;54;20986;-73
2021/12/12 10:43:57;;;;;;;8.00;6.10;;;7.70;99.90;;;;;;2611896;54;20476;-72
2021/12/12 10:46:49;;;;;;;6.07;5.20;;;7.70;99.90;;;;;;2608814;54;20454;-72
2021/12/12 10:49:25;;;;;;;7.20;5.57;;;7.70;99.90;;;;;;2613123;54;20416;-71
2021/12/12 10:52:01;;;;;;;6.43;4.83;;;7.60;99.90;;;;;;2612076;54;20974;-72
2021/12/12 10:54:45;;;;;;;8.33;7.17;;;7.80;99.90;;;;;;2613210;54;20407;-73
2021/12/12 10:57:18;;;;;;;8.00;7.20;;;7.90;99.90;;;;;;2612884;54;20408;-74
2021/12/12 10:59:55;;;;;;;8.33;7.53;;;7.70;99.90;;;;;;2614396;54;20424;-76
2021/12/12 11:02:29;;;;;;;7.57;5.87;;;7.90;99.90;;;;;;2609409;54;20434;-71
2021/12/12 11:05:01;;;;;;;7.90;6.70;;;8.00;99.90;;;;;;2613203;54;20413;-71
2021/12/12 11:07:45;;;;;;;10.57;6.33;;;8.20;99.90;;;;;;2613884;54;20401;-72
2021/12/12 11:10:19;;;;;;;8.10;6.40;;;8.10;99.90;;;;;;2612749;39;20813;-73
2021/12/12 11:12:45;;;;;;;7.17;6.40;;;7.80;99.90;;;;;;2613224;54;20420;-71
2021/12/12 11:15:20;;;;;;;7.40;6.13;;;7.90;99.90;;;;;;2614876;39;20887;-72
2021/12/12 11:18:08;;;;;;;11.73;7.80;;;7.80;99.90;;;;;;2613140;47;20272;-73
2021/12/12 11:20:48;;;;;;;12.40;7.70;;;8.00;99.90;;;;;;2614579;39;20915;-72
2021/12/12 11:23:25;;;;;;;7.17;6.30;;;8.00;99.90;;;;;;2613152;54;20411;-70
2021/12/12 11:26:04;;;;;;;7.70;6.13;;;8.00;99.90;;;;;;2612595;47;20431;-72
2021/12/12 11:28:46;;;;;;;9.50;7.50;;;8.00;99.90;;;;;;2613161;54;20464;-73
2021/12/12 11:31:21;;;;;;;6.00;5.40;;;7.90;99.90;;;;;;2613964;54;20431;-75
2021/12/12 11:33:49;;;;;;;5.77;5.20;;;7.80;99.90;;;;;;2614461;39;20789;-72
2021/12/12 11:36:22;;;;;;;6.37;5.40;;;7.80;99.90;;;;;;2614468;54;20403;-72
2021/12/12 11:38:55;;;;;;;6.37;5.43;;;8.00;99.90;;;;;;2612591;54;20407;-74
2021/12/12 11:41:47;;;;;;;5.93;5.33;;;8.30;99.90;;;;;;2613643;54;20921;-71
2021/12/12 11:44:26;;;;;;;5.20;4.70;;;8.10;99.90;;;;;;2611251;39;20840;-72
2021/12/12 11:47:07;;;;;;;7.87;5.77;;;8.10;99.90;;;;;;2613913;54;20411;-74
2021/12/12 11:49:59;;;;;;;6.70;5.10;;;8.10;99.90;;;;;;2613397;39;20804;-71
2021/12/12 11:53:00;;;;;;;5.50;4.57;;;8.10;99.90;;;;;;2613780;54;20411;-72
2021/12/12 11:55:26;;;;;;;8.20;6.47;;;8.00;99.90;;;;;;2613972;54;20428;-71
2021/12/12 11:57:59;;;;;;;6.23;5.63;;;8.00;99.90;;;;;;2614172;54;20399;-72
2021/12/12 12:00:36;;;;;;;6.30;4.60;;;8.10;99.90;;;;;;2612527;54;20396;-73
2021/12/12 12:03:21;;;;;;;6.23;5.37;;;7.90;99.90;;;;;;2614471;54;21407;-72
2021/12/12 12:05:57;;;;;;;4.83;4.33;;;8.00;99.90;;;;;;2612974;47;20399;-71
2021/12/12 12:08:28;;;;;;;5.37;4.83;;;8.10;99.90;;;;;;2614981;54;21282;-74
2021/12/12 12:11:27;;;;;;;5.30;4.90;;;8.10;99.90;;;;;;2613313;54;20971;-72
2021/12/12 12:14:02;;;;;;;4.70;4.30;;;8.10;99.90;;;;;;2613450;47;20427;-71
2021/12/12 12:16:55;;;;;;;15.90;10.73;;;8.10;99.90;;;;;;2615013;54;20525;-72
2021/12/12 12:19:42;;;;;;;5.87;5.37;;;8.10;99.90;;;;;;2613708;54;20428;-70
2021/12/12 12:22:09;;;;;;;4.90;4.40;;;8.00;99.90;;;;;;2611682;54;20415;-72
2021/12/12 12:24:54;;;;;;;6.00;5.43;;;8.00;99.90;;;;;;2614485;54;20407;-71
2021/12/12 12:27:32;;;;;;;5.00;4.60;;;8.10;99.90;;;;;;2614208;54;20427;-71
2021/12/12 12:30:04;;;;;;;3.80;3.40;;;8.10;99.90;;;;;;2613620;54;20430;-72
2021/12/12 12:33:08;;;;;;;4.63;4.20;;;8.10;99.90;;;;;;2614223;54;20414;-73
2021/12/12 12:36:12;;;;;;;7.60;3.33;;;8.20;99.90;;;;;;2613174;54;20440;-71
2021/12/12 12:39:15;;;;;;;4.83;4.43;;;8.20;99.90;;;;;;2613856;54;20416;-73
2021/12/12 12:42:06;;;;;;;5.97;5.17;;;8.20;99.90;;;;;;2614349;54;20420;-71
2021/12/12 12:45:20;;;;;;;4.93;4.43;;;8.30;99.90;;;;;;2614460;54;20826;-71
2021/12/12 12:47:52;;;;;;;5.03;4.53;;;8.30;99.90;;;;;;2613796;54;20388;-72
2021/12/12 12:50:58;;;;;;;6.00;4.80;;;8.30;99.90;;;;;;2612617;54;20419;-75
2021/12/12 12:53:55;;;;;;;4.07;3.70;;;8.20;99.90;;;;;;2612221;54;20407;-72
2021/12/12 12:57:07;;;;;;;5.03;4.60;;;8.20;99.90;;;;;;2613611;54;20945;-71
2021/12/12 12:59:51;;;;;;;5.60;5.10;;;8.30;99.90;;;;;;2612438;54;20509;-73
2021/12/12 13:02:34;;;;;;;5.17;4.60;;;8.40;99.90;;;;;;2611631;54;20408;-72
2021/12/12 13:05:28;;;;;;;4.90;4.30;;;8.50;99.90;;;;;;2613276;54;20534;-71
2021/12/12 13:08:28;;;;;;;11.10;9.27;;;8.30;99.90;;;;;;2612019;54;20432;-73
2021/12/12 13:10:59;;;;;;;6.53;5.93;;;8.50;99.90;;;;;;2612877;54;20438;-73
2021/12/12 13:13:45;;;;;;;4.30;3.80;;;8.50;99.90;;;;;;2612118;47;20999;-72
2021/12/12 13:16:23;;;;;;;6.00;5.50;;;8.20;99.90;;;;;;2610791;54;20894;-72
2021/12/12 13:19:04;;;;;;;7.13;6.53;;;8.20;99.90;;;;;;2609943;46;20519;-73
2021/12/12 13:21:33;;;;;;;5.40;4.90;;;8.30;99.90;;;;;;2612476;54;20449;-72
2021/12/12 13:24:02;;;;;;;3.23;2.93;;;8.40;99.90;;;;;;2612770;51;20437;-71
2021/12/12 13:26:56;;;;;;;5.27;4.87;;;8.30;99.90;;;;;;2612951;54;20459;-74
2021/12/12 13:29:36;;;;;;;9.80;5.50;;;8.30;99.90;;;;;;2611608;54;20479;-71
2021/12/12 13:32:25;;;;;;;6.57;5.80;;;8.40;99.90;;;;;;2612562;54;20414;-71
2021/12/12 13:35:12;;;;;;;4.70;4.40;;;8.50;99.90;;;;;;2610348;54;20507;-71
2021/12/12 13:38:00;;;;;;;4.50;3.67;;;8.70;99.90;;;;;;2612255;54;20506;-71
2021/12/12 13:40:39;;;;;;;5.07;4.57;;;8.30;99.90;;;;;;2612278;54;20419;-71
2021/12/12 13:43:21;;;;;;;6.07;5.43;;;8.40;99.90;;;;;;2612036;54;20431;-72
2021/12/12 13:45:58;;;;;;;3.23;3.03;;;8.60;99.90;;;;;;2613527;54;20430;-71
2021/12/12 13:48:48;;;;;;;6.80;6.10;;;8.40;99.90;;;;;;2613428;39;21009;-72
2021/12/12 13:51:26;;;;;;;8.10;4.10;;;8.50;99.90;;;;;;2613179;54;20569;-71
2021/12/12 13:54:03;;;;;;;4.70;4.30;;;8.50;99.90;;;;;;2613186;54;20411;-74
2021/12/12 13:56:33;;;;;;;6.13;5.50;;;8.50;99.90;;;;;;2613466;54;20510;-72